Time;durP1;ratioP1;P1;durP2;ratioP2;P2;SDS_P1;SDS_P2;PMS_P1;PMS_P2;Temp;Humidity;BMP_temperature;BMP_pressure;BME280_temperature;BME280_humidity;BME280_pressure;Samples;Min_cycle;Max_cycle;Signal;HPM_P1;HPM_P2
2021/10/13 00:01:33;;;;;;;8.82;4.88;;;28.50;91.80;;;;;;5104297;28;20020;-54
2021/10/13 00:04:00;;;;;;;6.05;4.88;;;28.50;91.70;;;;;;5103012;28;20036;-47
2021/10/13 00:06:27;;;;;;;8.68;5.38;;;28.50;91.70;;;;;;5103955;28;20126;-47
2021/10/13 00:08:53;;;;;;;10.07;5.15;;;28.50;91.60;;;;;;5104434;28;20039;-46
2021/10/13 00:11:20;;;;;;;7.47;5.55;;;28.50;91.60;;;;;;5103978;28;20016;-48
2021/10/13 00:13:47;;;;;;;10.98;5.20;;;28.50;91.60;;;;;;5103845;28;20020;-43
2021/10/13 00:16:14;;;;;;;10.40;4.88;;;28.50;91.50;;;;;;5103894;28;20048;-46
2021/10/13 00:18:41;;;;;;;6.78;4.90;;;28.50;91.50;;;;;;5103972;28;20091;-47
2021/10/13 00:21:08;;;;;;;6.43;4.95;;;28.40;91.40;;;;;;5103756;28;20028;-45
2021/10/13 00:23:34;;;;;;;9.90;5.30;;;28.40;91.40;;;;;;5104931;28;20315;-45
2021/10/13 00:26:01;;;;;;;8.65;4.60;;;28.40;91.30;;;;;;5107834;28;20389;-49
2021/10/13 00:28:28;;;;;;;10.57;4.50;;;28.40;91.30;;;;;;5108014;28;20109;-45
2021/10/13 00:30:54;;;;;;;7.03;4.78;;;28.40;91.30;;;;;;5107798;28;20016;-45
2021/10/13 00:33:21;;;;;;;9.18;4.88;;;28.40;91.20;;;;;;5107935;28;20027;-45
2021/10/13 00:35:48;;;;;;;6.82;4.25;;;28.40;91.10;;;;;;5107670;28;20015;-42
2021/10/13 00:38:14;;;;;;;7.10;4.45;;;28.40;91.10;;;;;;5107811;28;20312;-44
2021/10/13 00:40:41;;;;;;;6.57;4.10;;;28.40;91.00;;;;;;5107592;28;20244;-51
2021/10/13 00:43:08;;;;;;;8.98;4.18;;;28.30;90.90;;;;;;5107877;28;20024;-46
2021/10/13 00:45:34;;;;;;;8.02;4.45;;;28.30;90.90;;;;;;5106503;28;20377;-50
2021/10/13 00:48:01;;;;;;;11.68;4.30;;;28.30;90.80;;;;;;5107541;28;20267;-42
2021/10/13 00:50:28;;;;;;;6.95;4.40;;;28.30;90.70;;;;;;5107596;28;20020;-44
2021/10/13 00:52:54;;;;;;;8.60;4.15;;;28.30;90.70;;;;;;5107579;28;20027;-49
2021/10/13 00:55:21;;;;;;;5.65;3.90;;;28.30;90.50;;;;;;5107263;28;20020;-43
2021/10/13 00:57:50;;;;;;;8.23;4.07;;;28.30;90.50;;;;;;5107187;28;20055;-46
2021/10/13 01:00:18;;;;;;;6.65;3.33;;;28.30;90.60;;;;;;5107540;28;20027;-47
2021/10/13 01:03:17;;;;;;;7.55;3.60;;;28.30;90.50;;;;;;5107159;28;20077;-48
2021/10/13 01:06:08;;;;;;;8.85;3.83;;;28.20;90.40;;;;;;5107255;28;20023;-48
2021/10/13 01:08:54;;;;;;;6.22;3.63;;;28.20;90.30;;;;;;5107288;28;20053;-50
2021/10/13 01:11:38;;;;;;;9.20;3.80;;;28.20;90.30;;;;;;5107004;28;20012;-43
2021/10/13 01:14:16;;;;;;;6.93;3.50;;;28.20;90.30;;;;;;5107362;28;20020;-48
2021/10/13 01:16:51;;;;;;;7.68;3.22;;;28.20;90.30;;;;;;5107148;28;20369;-46
2021/10/13 01:19:43;;;;;;;5.40;3.42;;;28.20;90.20;;;;;;5107377;28;20051;-45
2021/10/13 01:22:26;;;;;;;5.22;4.10;;;28.10;90.20;;;;;;5106713;28;20024;-47
2021/10/13 01:24:55;;;;;;;12.00;7.10;;;28.10;90.20;;;;;;5106547;28;20012;-45
2021/10/13 01:27:34;;;;;;;11.35;5.55;;;28.10;90.20;;;;;;5106665;28;20024;-44
2021/10/13 01:30:02;;;;;;;6.78;4.22;;;28.10;90.20;;;;;;5106636;28;20019;-43
2021/10/13 01:32:33;;;;;;;7.93;4.20;;;28.10;90.20;;;;;;5106544;28;20027;-44
2021/10/13 01:35:02;;;;;;;9.18;4.18;;;28.00;90.20;;;;;;5106799;28;20020;-46
2021/10/13 01:37:44;;;;;;;7.68;3.42;;;28.10;90.20;;;;;;5105101;28;20316;-46
2021/10/13 01:40:16;;;;;;;4.88;4.03;;;28.10;90.20;;;;;;5106397;28;20099;-45
2021/10/13 01:42:46;;;;;;;10.45;4.97;;;28.00;90.20;;;;;;5106387;28;20039;-54
2021/10/13 01:45:15;;;;;;;9.23;5.20;;;28.00;90.30;;;;;;5106166;28;20208;-50
2021/10/13 01:47:46;;;;;;;11.40;5.95;;;28.00;90.30;;;;;;5106420;28;20091;-49
2021/10/13 01:50:14;;;;;;;15.25;6.07;;;27.90;90.30;;;;;;5106539;28;20023;-47
2021/10/13 01:52:42;;;;;;;19.13;5.63;;;27.90;90.20;;;;;;5106389;28;20034;-53
2021/10/13 01:55:10;;;;;;;11.27;5.20;;;27.90;90.20;;;;;;5106283;28;20023;-44
2021/10/13 01:57:39;;;;;;;13.25;5.40;;;27.90;90.30;;;;;;5105894;28;20335;-51
2021/10/13 02:00:09;;;;;;;13.45;6.18;;;27.90;90.30;;;;;;5106132;28;20046;-51
2021/10/13 02:02:37;;;;;;;15.82;5.90;;;27.90;90.30;;;;;;5106000;28;20051;-50
2021/10/13 02:05:05;;;;;;;16.05;6.10;;;27.90;90.30;;;;;;5106129;28;20020;-44
2021/10/13 02:07:34;;;;;;;13.38;5.78;;;27.90;90.30;;;;;;5105954;28;20070;-47
2021/10/13 02:10:06;;;;;;;10.38;5.38;;;27.90;90.40;;;;;;5105767;28;20078;-48
2021/10/13 02:12:36;;;;;;;9.38;4.82;;;27.90;90.40;;;;;;5105927;28;20300;-44
2021/10/13 02:15:04;;;;;;;9.00;4.80;;;27.80;90.40;;;;;;5105879;28;20274;-45
2021/10/13 02:17:33;;;;;;;13.43;5.07;;;27.80;90.30;;;;;;5105534;28;20050;-48
2021/10/13 02:20:01;;;;;;;19.40;5.20;;;27.80;90.40;;;;;;5105678;28;20020;-47
2021/10/13 02:22:29;;;;;;;16.23;5.07;;;27.80;90.40;;;;;;5105659;28;20078;-47
2021/10/13 02:24:56;;;;;;;11.40;3.88;;;27.80;90.30;;;;;;5105480;28;20044;-42
2021/10/13 02:27:55;;;;;;;10.25;4.03;;;27.80;90.40;;;;;;5104507;28;20081;-56
2021/10/13 02:30:22;;;;;;;12.13;3.90;;;27.80;90.40;;;;;;5060867;28;20032;-42
2021/10/13 02:32:49;;;;;;;8.80;3.60;;;27.80;90.40;;;;;;5105772;28;20047;-43
2021/10/13 02:35:15;;;;;;;11.60;3.80;;;27.70;90.50;;;;;;5105182;28;20024;-47
2021/10/13 02:37:42;;;;;;;9.50;3.53;;;27.80;90.60;;;;;;5105396;28;20092;-45
2021/10/13 02:40:09;;;;;;;7.45;3.33;;;27.80;90.70;;;;;;5105253;28;20032;-46
2021/10/13 02:42:38;;;;;;;7.80;3.55;;;27.70;90.70;;;;;;5104971;28;20016;-48
2021/10/13 02:45:05;;;;;;;9.00;3.60;;;27.70;90.70;;;;;;5105326;28;20048;-47
2021/10/13 02:47:46;;;;;;;9.50;3.55;;;27.70;90.70;;;;;;5103401;28;20056;-43
2021/10/13 02:50:35;;;;;;;12.05;3.75;;;27.70;90.80;;;;;;5105075;28;20122;-47
2021/10/13 02:53:16;;;;;;;10.77;4.00;;;27.70;90.90;;;;;;5105263;28;20024;-41
2021/10/13 02:55:55;;;;;;;24.20;4.57;;;27.70;90.90;;;;;;5105126;28;20082;-48
2021/10/13 02:58:42;;;;;;;20.25;4.93;;;27.70;91.00;;;;;;5105209;28;20055;-51
2021/10/13 03:01:16;;;;;;;22.50;4.72;;;27.70;91.10;;;;;;5105092;28;20027;-48
2021/10/13 03:03:57;;;;;;;23.92;5.10;;;27.70;91.30;;;;;;5103914;28;20332;-45
2021/10/13 03:06:36;;;;;;;21.48;6.90;;;27.70;91.30;;;;;;5104879;28;20245;-42
2021/10/13 03:09:03;;;;;;;22.88;7.63;;;27.70;91.30;;;;;;5105148;28;20030;-46
2021/10/13 03:11:31;;;;;;;28.25;7.10;;;27.70;91.30;;;;;;5104826;28;20046;-46
2021/10/13 03:14:00;;;;;;;24.30;6.75;;;27.70;91.30;;;;;;5105298;28;20031;-44
2021/10/13 03:16:28;;;;;;;13.35;5.72;;;27.70;91.30;;;;;;5104646;28;20121;-48
2021/10/13 03:18:56;;;;;;;9.90;5.22;;;27.60;91.20;;;;;;5105178;28;20020;-42
2021/10/13 03:21:32;;;;;;;15.65;5.45;;;27.70;91.10;;;;;;5104738;28;20031;-45
2021/10/13 03:23:58;;;;;;;17.13;5.20;;;27.60;91.00;;;;;;5105025;28;20046;-50
2021/10/13 03:26:25;;;;;;;8.90;4.57;;;27.70;91.00;;;;;;5104446;28;20323;-48
2021/10/13 03:28:51;;;;;;;10.57;4.40;;;27.60;90.90;;;;;;5104343;28;20254;-43
2021/10/13 03:31:18;;;;;;;9.95;4.60;;;27.60;91.00;;;;;;5104280;28;20016;-45
2021/10/13 03:33:49;;;;;;;9.15;4.38;;;27.60;91.00;;;;;;5104928;28;20028;-43
2021/10/13 03:36:16;;;;;;;7.63;4.00;;;27.60;91.00;;;;;;5104455;28;20012;-49
2021/10/13 03:38:42;;;;;;;12.52;4.15;;;27.60;91.00;;;;;;5104695;28;20030;-43
2021/10/13 03:41:09;;;;;;;8.98;4.00;;;27.60;91.00;;;;;;5104360;28;20020;-50
2021/10/13 03:43:46;;;;;;;9.38;3.90;;;27.50;91.00;;;;;;5104669;28;20110;-45
2021/10/13 03:46:19;;;;;;;6.97;3.70;;;27.50;91.00;;;;;;5104324;28;20024;-43
2021/10/13 03:48:50;;;;;;;8.15;3.72;;;27.50;91.00;;;;;;5104515;28;20031;-49
2021/10/13 03:51:19;;;;;;;10.82;4.10;;;27.50;91.00;;;;;;5104149;28;20244;-46
2021/10/13 03:53:46;;;;;;;9.60;5.00;;;27.50;91.00;;;;;;5104625;28;20200;-45
2021/10/13 03:56:13;;;;;;;7.97;5.10;;;27.50;90.90;;;;;;5104252;28;20012;-45
2021/10/13 03:58:41;;;;;;;8.98;5.30;;;27.50;90.90;;;;;;5103328;28;20089;-52
2021/10/13 04:01:08;;;;;;;8.50;5.20;;;27.50;91.00;;;;;;5104144;28;20020;-44
2021/10/13 04:03:34;;;;;;;11.05;5.50;;;27.50;91.00;;;;;;5104278;28;20090;-43
2021/10/13 04:06:01;;;;;;;11.07;5.55;;;27.50;90.90;;;;;;5103904;28;20020;-48
2021/10/13 04:08:28;;;;;;;8.93;6.05;;;27.40;90.90;;;;;;5104157;28;20032;-43
2021/10/13 04:10:54;;;;;;;9.52;5.35;;;27.40;90.90;;;;;;5103952;28;20012;-44
2021/10/13 04:13:21;;;;;;;7.20;4.82;;;27.40;91.00;;;;;;5104049;28;20069;-49
2021/10/13 04:15:47;;;;;;;9.30;4.25;;;27.40;91.00;;;;;;5104159;28;20020;-46
2021/10/13 04:18:14;;;;;;;7.40;4.05;;;27.40;91.00;;;;;;5104145;28;20069;-44
2021/10/13 04:20:41;;;;;;;9.07;4.22;;;27.40;91.00;;;;;;5103823;28;20020;-47
2021/10/13 04:23:07;;;;;;;7.32;4.05;;;27.30;91.00;;;;;;5102856;28;20024;-42
2021/10/13 04:25:34;;;;;;;6.50;3.67;;;27.30;91.00;;;;;;5103836;28;20058;-50
2021/10/13 04:28:00;;;;;;;9.25;3.50;;;27.30;91.00;;;;;;5103776;28;20027;-47
2021/10/13 04:30:27;;;;;;;8.82;3.60;;;27.30;91.00;;;;;;5103775;28;20351;-46
2021/10/13 04:32:54;;;;;;;6.30;3.83;;;27.30;91.00;;;;;;5104087;28;20328;-48
2021/10/13 04:35:21;;;;;;;7.45;3.63;;;27.30;90.90;;;;;;5103678;28;20012;-43
2021/10/13 04:37:47;;;;;;;6.25;3.67;;;27.30;90.90;;;;;;5103855;28;20031;-47
2021/10/13 04:40:14;;;;;;;9.82;3.88;;;27.30;90.90;;;;;;5103760;28;20022;-50
2021/10/13 04:42:41;;;;;;;10.43;3.67;;;27.30;90.90;;;;;;5103652;28;20028;-49
2021/10/13 04:45:08;;;;;;;8.13;3.38;;;27.30;91.00;;;;;;5103722;28;20027;-44
2021/10/13 04:47:35;;;;;;;9.18;3.90;;;27.30;91.00;;;;;;5103520;28;20028;-44
2021/10/13 04:50:01;;;;;;;7.90;3.53;;;27.20;91.00;;;;;;5103449;28;20324;-43
2021/10/13 04:52:28;;;;;;;6.07;3.10;;;27.20;91.00;;;;;;5103610;28;20040;-47
2021/10/13 04:54:55;;;;;;;7.47;3.30;;;27.20;91.10;;;;;;5103520;28;20050;-45
2021/10/13 04:57:21;;;;;;;7.07;3.38;;;27.30;91.00;;;;;;5103175;28;20366;-45
2021/10/13 04:59:48;;;;;;;4.82;3.40;;;27.20;91.00;;;;;;5103577;28;20031;-48
2021/10/13 05:02:14;;;;;;;9.77;3.40;;;27.20;91.00;;;;;;5103427;28;20016;-43
2021/10/13 05:04:41;;;;;;;9.70;4.00;;;27.20;91.00;;;;;;5103365;28;20024;-47
2021/10/13 05:07:08;;;;;;;6.05;3.45;;;27.20;91.00;;;;;;5103437;28;20376;-45
2021/10/13 05:09:35;;;;;;;8.23;3.78;;;27.20;91.10;;;;;;5104167;28;20308;-53
2021/10/13 05:12:02;;;;;;;11.07;3.33;;;27.20;91.10;;;;;;5107114;28;20020;-57
2021/10/13 05:14:29;;;;;;;6.53;3.70;;;27.20;91.10;;;;;;5107052;28;20028;-47
2021/10/13 05:16:55;;;;;;;7.30;3.78;;;27.20;91.10;;;;;;5107177;28;20026;-45
2021/10/13 05:19:22;;;;;;;7.63;3.90;;;27.20;91.30;;;;;;5107478;28;20047;-47
2021/10/13 05:21:48;;;;;;;6.57;3.80;;;27.20;91.10;;;;;;5106999;28;20031;-50
2021/10/13 05:24:15;;;;;;;6.65;4.20;;;27.20;91.10;;;;;;5107347;28;20061;-50
2021/10/13 05:26:42;;;;;;;6.15;3.85;;;27.20;91.10;;;;;;5106974;28;20073;-54
2021/10/13 05:29:08;;;;;;;6.20;3.90;;;27.20;91.00;;;;;;5107263;28;20028;-48
2021/10/13 05:31:35;;;;;;;6.57;3.55;;;27.20;91.10;;;;;;5106989;28;20020;-46
2021/10/13 05:34:01;;;;;;;6.07;3.80;;;27.10;91.10;;;;;;5107180;28;20367;-50
2021/10/13 05:36:28;;;;;;;10.20;3.97;;;27.10;91.10;;;;;;5106602;28;20024;-49
2021/10/13 05:38:58;;;;;;;8.38;3.83;;;27.20;91.10;;;;;;5107105;28;20012;-48
2021/10/13 05:41:25;;;;;;;6.15;3.85;;;27.10;91.20;;;;;;5106668;28;20069;-45
2021/10/13 05:43:51;;;;;;;6.35;3.47;;;27.10;91.30;;;;;;5106837;28;20012;-48
2021/10/13 05:46:18;;;;;;;7.72;4.07;;;27.10;91.30;;;;;;5106595;28;20061;-46
2021/10/13 05:48:45;;;;;;;7.40;3.42;;;27.10;91.30;;;;;;5106828;28;20304;-51
2021/10/13 05:51:12;;;;;;;6.68;3.58;;;27.10;91.30;;;;;;5106253;28;20028;-49
2021/10/13 05:53:38;;;;;;;6.55;3.90;;;27.10;91.30;;;;;;5106721;28;20020;-49
2021/10/13 05:56:05;;;;;;;7.93;4.00;;;27.20;91.30;;;;;;5106439;28;20020;-47
2021/10/13 05:58:32;;;;;;;7.90;3.70;;;27.10;91.30;;;;;;5106008;28;20114;-50
2021/10/13 06:00:58;;;;;;;9.27;3.45;;;27.10;91.40;;;;;;5106398;28;20083;-46
2021/10/13 06:03:25;;;;;;;8.70;3.53;;;27.10;91.40;;;;;;5106400;28;20035;-49
2021/10/13 06:05:52;;;;;;;6.22;3.55;;;27.00;91.30;;;;;;5106134;28;20043;-53
2021/10/13 06:08:20;;;;;;;9.90;3.50;;;27.00;91.30;;;;;;5106234;28;20095;-48
2021/10/13 06:10:47;;;;;;;7.53;3.85;;;27.00;91.30;;;;;;5106039;28;20016;-50
2021/10/13 06:13:13;;;;;;;6.32;3.33;;;27.00;91.20;;;;;;5106125;28;20036;-46
2021/10/13 06:15:40;;;;;;;8.07;3.40;;;27.00;91.20;;;;;;5105935;28;20016;-49
2021/10/13 06:18:11;;;;;;;7.43;3.35;;;27.00;91.20;;;;;;5106096;28;20212;-47
2021/10/13 06:20:37;;;;;;;7.57;2.92;;;27.00;91.10;;;;;;5105665;28;20031;-49
2021/10/13 06:23:04;;;;;;;9.40;3.58;;;27.10;91.10;;;;;;5105455;28;20069;-44
2021/10/13 06:25:31;;;;;;;6.95;3.38;;;27.00;91.30;;;;;;5105649;28;20246;-52
2021/10/13 06:27:58;;;;;;;11.60;3.80;;;27.00;91.00;;;;;;5105672;28;20066;-47
2021/10/13 06:30:25;;;;;;;6.20;3.38;;;27.00;91.00;;;;;;5105673;28;20077;-50
2021/10/13 06:32:51;;;;;;;7.40;3.30;;;27.00;91.00;;;;;;5105767;28;20024;-49
2021/10/13 06:35:18;;;;;;;6.93;3.15;;;27.00;90.90;;;;;;5105476;28;20020;-45
2021/10/13 06:37:46;;;;;;;7.57;3.38;;;27.00;90.90;;;;;;5105642;28;20024;-52
2021/10/13 06:40:14;;;;;;;9.20;3.47;;;27.00;90.80;;;;;;5105472;28;20066;-46
2021/10/13 06:42:41;;;;;;;6.88;3.00;;;27.00;90.80;;;;;;5105281;28;20220;-46
2021/10/13 06:45:09;;;;;;;5.00;3.05;;;27.00;90.80;;;;;;5105368;28;20035;-45
2021/10/13 06:47:36;;;;;;;9.68;3.25;;;27.00;90.80;;;;;;5105492;28;20059;-46
2021/10/13 06:50:05;;;;;;;5.47;2.58;;;27.00;90.80;;;;;;5105226;28;20020;-52
2021/10/13 06:52:32;;;;;;;11.55;3.30;;;27.00;90.70;;;;;;5105286;28;20026;-43
2021/10/13 06:54:58;;;;;;;6.85;3.10;;;26.90;90.60;;;;;;5105214;28;20266;-54
2021/10/13 06:57:25;;;;;;;6.88;3.30;;;27.00;90.60;;;;;;5104950;28;20069;-48
2021/10/13 06:59:51;;;;;;;7.47;3.42;;;27.00;90.60;;;;;;5105177;28;20028;-50
2021/10/13 07:02:18;;;;;;;6.07;3.20;;;26.90;90.60;;;;;;5105097;28;20026;-47
2021/10/13 07:04:45;;;;;;;11.02;3.20;;;26.90;90.70;;;;;;5104951;28;20044;-45
2021/10/13 07:07:11;;;;;;;6.63;3.03;;;27.00;90.70;;;;;;5104812;28;20083;-49
2021/10/13 07:09:38;;;;;;;7.25;3.30;;;27.00;90.70;;;;;;5104917;28;20316;-48
2021/10/13 07:12:05;;;;;;;6.13;3.20;;;26.90;90.70;;;;;;5104833;28;20044;-49
2021/10/13 07:14:32;;;;;;;6.20;3.17;;;26.90;90.90;;;;;;5105330;28;20019;-49
2021/10/13 07:16:58;;;;;;;8.60;3.45;;;26.90;90.70;;;;;;5104808;28;20024;-45
2021/10/13 07:19:25;;;;;;;6.15;2.90;;;26.90;90.70;;;;;;5105225;28;20024;-43
2021/10/13 07:21:51;;;;;;;6.80;2.75;;;26.90;90.70;;;;;;5105008;28;20036;-47
2021/10/13 07:24:18;;;;;;;5.95;2.80;;;26.90;90.80;;;;;;5105152;28;20031;-49
2021/10/13 07:26:45;;;;;;;7.38;3.28;;;26.90;90.80;;;;;;5104631;28;20091;-50
2021/10/13 07:29:13;;;;;;;5.55;3.70;;;26.90;90.80;;;;;;5105069;28;20316;-42
2021/10/13 07:31:39;;;;;;;8.38;3.50;;;26.90;90.80;;;;;;5104584;28;20376;-50
2021/10/13 07:34:06;;;;;;;8.00;3.28;;;26.90;90.80;;;;;;5104854;28;20083;-46
2021/10/13 07:36:36;;;;;;;4.50;3.00;;;26.80;90.80;;;;;;5104418;28;20226;-52
2021/10/13 07:39:05;;;;;;;14.25;2.80;;;26.80;90.80;;;;;;5104843;28;20020;-46
2021/10/13 07:41:31;;;;;;;10.60;2.95;;;26.80;90.80;;;;;;5104258;28;20026;-50
2021/10/13 07:43:58;;;;;;;5.68;3.25;;;26.80;90.90;;;;;;5104816;28;20028;-45
2021/10/13 07:46:25;;;;;;;9.10;3.40;;;26.80;90.80;;;;;;5104370;28;20016;-46
2021/10/13 07:48:52;;;;;;;4.72;2.75;;;26.80;90.90;;;;;;5104561;28;20024;-53
2021/10/13 07:51:19;;;;;;;5.55;2.85;;;26.80;90.90;;;;;;5104339;28;20024;-54
2021/10/13 07:53:46;;;;;;;4.97;2.70;;;26.80;90.90;;;;;;5104700;28;20039;-51
2021/10/13 07:56:13;;;;;;;5.75;2.92;;;26.80;91.00;;;;;;5104002;28;20024;-44
2021/10/13 07:58:39;;;;;;;6.25;3.40;;;26.80;91.00;;;;;;5104406;28;20040;-47
2021/10/13 08:01:06;;;;;;;8.55;3.10;;;26.70;91.00;;;;;;5104446;28;20016;-45
2021/10/13 08:03:33;;;;;;;7.03;2.88;;;26.70;91.00;;;;;;5104406;28;20030;-46
2021/10/13 08:06:00;;;;;;;11.18;3.20;;;26.70;91.00;;;;;;5103893;28;20208;-43
2021/10/13 08:08:27;;;;;;;9.35;3.38;;;26.70;91.10;;;;;;5104208;28;20032;-46
2021/10/13 08:10:53;;;;;;;8.25;3.17;;;26.70;91.10;;;;;;5104119;28;20083;-47
2021/10/13 08:13:20;;;;;;;4.63;3.03;;;26.70;91.10;;;;;;5104086;28;20020;-50
2021/10/13 08:15:46;;;;;;;8.55;3.05;;;26.70;91.10;;;;;;5103964;28;20043;-53
2021/10/13 08:18:13;;;;;;;5.63;2.88;;;26.70;91.10;;;;;;5104189;28;20032;-51
2021/10/13 08:20:40;;;;;;;6.00;2.90;;;26.70;91.10;;;;;;5103864;28;20060;-45
2021/10/13 08:23:06;;;;;;;6.18;3.08;;;26.70;91.10;;;;;;5104182;28;20028;-50
2021/10/13 08:25:33;;;;;;;6.22;3.40;;;26.70;91.10;;;;;;5103866;28;20012;-48
2021/10/13 08:27:59;;;;;;;5.90;3.05;;;26.70;91.10;;;;;;5103628;28;20321;-43
2021/10/13 08:30:26;;;;;;;10.40;3.47;;;26.70;91.10;;;;;;5103878;28;20099;-49
2021/10/13 08:32:53;;;;;;;7.95;3.28;;;26.60;91.10;;;;;;5104071;28;20065;-44
2021/10/13 08:35:19;;;;;;;6.65;3.20;;;26.60;91.10;;;;;;5103709;28;20016;-47
2021/10/13 08:37:46;;;;;;;10.70;3.65;;;26.60;91.10;;;;;;5103857;28;20285;-48
2021/10/13 08:40:12;;;;;;;5.90;3.40;;;26.60;91.10;;;;;;5103730;28;20186;-48
2021/10/13 08:43:01;;;;;;;10.35;3.45;;;26.60;91.10;;;;;;5103586;28;20048;-47
2021/10/13 08:45:30;;;;;;;8.40;3.22;;;26.60;91.10;;;;;;5105933;28;20091;-44
2021/10/13 08:47:57;;;;;;;10.10;3.30;;;26.60;91.20;;;;;;5107805;28;20054;-50
2021/10/13 08:50:25;;;;;;;7.47;3.33;;;26.60;91.20;;;;;;5107681;28;20020;-45
2021/10/13 08:53:13;;;;;;;9.07;3.40;;;26.60;91.10;;;;;;5107757;28;20030;-45
2021/10/13 08:55:41;;;;;;;9.18;3.33;;;26.60;91.20;;;;;;5107184;28;20032;-44
2021/10/13 08:58:22;;;;;;;4.65;3.58;;;26.60;91.20;;;;;;5107619;28;20047;-44
2021/10/13 09:01:08;;;;;;;6.55;3.53;;;26.60;91.20;;;;;;5107508;28;20039;-44
2021/10/13 09:03:36;;;;;;;6.95;3.80;;;26.60;91.20;;;;;;5107612;28;20201;-46
2021/10/13 09:06:25;;;;;;;8.98;3.70;;;26.60;91.20;;;;;;5107360;28;20033;-51
2021/10/13 09:09:10;;;;;;;7.57;3.60;;;26.60;91.20;;;;;;5107595;28;20032;-46
2021/10/13 09:11:37;;;;;;;6.15;3.88;;;26.60;91.30;;;;;;5107247;28;20012;-48
2021/10/13 09:14:13;;;;;;;9.05;3.65;;;26.60;91.30;;;;;;5107302;28;20023;-50
2021/10/13 09:16:55;;;;;;;6.97;3.20;;;26.60;91.30;;;;;;5107137;28;20066;-53
2021/10/13 09:19:25;;;;;;;6.57;3.37;;;26.50;91.20;;;;;;5107558;28;20067;-44
2021/10/13 09:22:01;;;;;;;6.97;3.55;;;26.50;91.30;;;;;;5107055;28;20020;-44
2021/10/13 09:24:30;;;;;;;7.38;3.67;;;26.50;91.20;;;;;;5107451;28;20032;-48
2021/10/13 09:27:21;;;;;;;8.40;3.70;;;26.50;91.20;;;;;;5106778;28;20062;-47
2021/10/13 09:29:48;;;;;;;7.88;3.65;;;26.50;91.20;;;;;;5106940;28;20020;-44
2021/10/13 09:32:20;;;;;;;8.20;3.53;;;26.50;91.30;;;;;;5106502;28;20020;-48
2021/10/13 09:34:48;;;;;;;4.85;3.60;;;26.50;91.30;;;;;;5106829;28;20201;-50
2021/10/13 09:37:14;;;;;;;6.75;3.60;;;26.50;91.30;;;;;;5106679;28;20085;-44
2021/10/13 09:39:41;;;;;;;6.57;3.58;;;26.50;91.30;;;;;;5106473;28;20024;-45
2021/10/13 09:42:10;;;;;;;6.32;3.67;;;26.50;91.40;;;;;;5106718;28;20339;-47
2021/10/13 09:44:42;;;;;;;5.13;3.20;;;26.50;91.40;;;;;;5106591;28;20028;-45
2021/10/13 09:47:13;;;;;;;8.05;3.22;;;26.50;91.40;;;;;;5106411;28;20016;-44
2021/10/13 09:49:48;;;;;;;5.00;3.28;;;26.50;91.40;;;;;;5106578;28;20024;-44
2021/10/13 09:52:18;;;;;;;7.05;3.22;;;26.40;91.40;;;;;;5106328;28;20016;-44
2021/10/13 09:54:47;;;;;;;10.90;4.15;;;26.40;91.50;;;;;;5106620;28;20247;-46
2021/10/13 09:57:23;;;;;;;9.73;3.72;;;26.40;91.50;;;;;;5106066;28;20044;-47
2021/10/13 10:00:11;;;;;;;7.40;3.95;;;26.40;91.50;;;;;;5106289;28;20036;-50
2021/10/13 10:02:59;;;;;;;11.43;3.80;;;26.50;91.50;;;;;;5106087;28;20051;-44
2021/10/13 10:05:37;;;;;;;6.13;3.58;;;26.40;91.50;;;;;;5106154;28;20076;-45
2021/10/13 10:08:07;;;;;;;8.68;3.53;;;26.40;91.50;;;;;;5106025;28;20043;-44
2021/10/13 10:10:36;;;;;;;8.77;3.70;;;26.40;91.60;;;;;;5106048;28;20073;-46
2021/10/13 10:13:04;;;;;;;9.93;3.90;;;26.40;91.60;;;;;;5106207;28;20016;-45
2021/10/13 10:16:03;;;;;;;9.38;3.80;;;26.40;91.60;;;;;;5106055;28;20429;-47
2021/10/13 10:18:32;;;;;;;6.32;3.70;;;26.40;91.70;;;;;;5061586;28;20380;-48
2021/10/13 10:21:17;;;;;;;9.43;3.90;;;26.40;91.70;;;;;;5105890;28;20213;-51
2021/10/13 10:23:45;;;;;;;8.45;3.55;;;26.30;91.70;;;;;;5106024;28;20313;-50
2021/10/13 10:26:27;;;;;;;8.85;3.88;;;26.30;91.70;;;;;;5105694;28;20027;-47
2021/10/13 10:29:10;;;;;;;10.18;4.30;;;26.30;91.70;;;;;;5105848;28;20028;-43
2021/10/13 10:31:39;;;;;;;13.15;4.53;;;26.40;91.80;;;;;;5105607;28;20023;-50
2021/10/13 10:34:08;;;;;;;15.13;4.75;;;26.30;91.70;;;;;;5106106;28;20020;-48
2021/10/13 10:36:40;;;;;;;7.65;3.95;;;26.30;91.70;;;;;;5105621;28;20024;-44
2021/10/13 10:39:12;;;;;;;9.05;4.45;;;26.30;91.70;;;;;;5105950;28;20020;-44
2021/10/13 10:41:49;;;;;;;7.03;3.70;;;26.30;91.70;;;;;;5105507;28;20031;-44
2021/10/13 10:44:45;;;;;;;10.80;3.78;;;26.30;91.70;;;;;;5106023;28;20225;-46
2021/10/13 10:47:17;;;;;;;7.25;3.28;;;26.30;91.70;;;;;;5105328;28;20028;-43
2021/10/13 10:49:46;;;;;;;9.20;3.97;;;26.30;91.70;;;;;;5105392;28;20063;-43
2021/10/13 10:52:15;;;;;;;5.95;3.80;;;26.20;91.70;;;;;;5105031;28;20204;-45
2021/10/13 10:54:51;;;;;;;9.45;3.92;;;26.20;91.70;;;;;;5105235;28;20088;-47
2021/10/13 10:57:30;;;;;;;6.25;3.63;;;26.20;91.80;;;;;;5104832;28;20104;-47
2021/10/13 10:59:58;;;;;;;14.68;11.82;;;26.30;91.80;;;;;;5105421;28;20024;-46
2021/10/13 11:02:25;;;;;;;19.05;14.93;;;26.30;91.80;;;;;;5105120;28;20075;-48
2021/10/13 11:05:08;;;;;;;14.93;8.32;;;26.30;91.80;;;;;;5104934;28;20027;-45
2021/10/13 11:07:35;;;;;;;13.15;8.10;;;26.30;91.80;;;;;;5104680;28;20024;-45
2021/10/13 11:10:08;;;;;;;9.45;7.80;;;26.30;91.90;;;;;;5104867;28;20016;-50
2021/10/13 11:13:01;;;;;;;10.50;6.85;;;26.30;91.90;;;;;;5105104;28;20044;-46
2021/10/13 11:15:31;;;;;;;9.65;6.25;;;26.30;91.90;;;;;;5101394;28;20104;-44
2021/10/13 11:18:18;;;;;;;6.75;5.63;;;26.30;91.90;;;;;;5104902;28;20024;-42
2021/10/13 11:20:46;;;;;;;9.93;6.57;;;26.30;91.90;;;;;;5104366;28;20038;-44
2021/10/13 11:23:13;;;;;;;14.00;9.77;;;26.30;91.90;;;;;;5104859;28;20030;-43
2021/10/13 11:25:40;;;;;;;16.02;11.35;;;26.40;91.90;;;;;;5104560;28;20035;-45
2021/10/13 11:28:10;;;;;;;13.43;10.88;;;26.40;91.90;;;;;;5104594;28;20083;-43
2021/10/13 11:30:48;;;;;;;18.30;12.70;;;26.50;91.80;;;;;;5104548;28;20020;-44
2021/10/13 11:33:20;;;;;;;19.58;11.50;;;26.50;91.70;;;;;;5103371;28;20043;-43
2021/10/13 11:35:50;;;;;;;8.77;7.55;;;26.60;91.70;;;;;;5104544;28;20406;-47
2021/10/13 11:38:20;;;;;;;10.27;7.85;;;26.70;91.60;;;;;;5104656;28;20024;-44
2021/10/13 11:40:47;;;;;;;12.68;7.20;;;26.80;91.40;;;;;;5104523;28;20035;-44
2021/10/13 11:43:18;;;;;;;8.55;6.55;;;26.90;91.50;;;;;;5104297;28;20023;-44
2021/10/13 11:45:47;;;;;;;10.93;7.60;;;26.90;91.40;;;;;;5104137;28;20058;-50
2021/10/13 11:48:22;;;;;;;11.60;7.15;;;27.00;91.30;;;;;;5104467;28;20044;-50
2021/10/13 11:50:49;;;;;;;7.75;6.03;;;27.00;91.30;;;;;;5104208;28;20026;-49
2021/10/13 11:53:15;;;;;;;9.25;6.10;;;27.10;91.30;;;;;;5104310;28;20290;-52
2021/10/13 11:55:42;;;;;;;6.85;5.68;;;27.10;91.30;;;;;;5104459;28;20027;-43
2021/10/13 11:58:09;;;;;;;6.35;5.47;;;27.10;91.30;;;;;;5104375;28;20374;-51
2021/10/13 12:00:47;;;;;;;6.43;5.38;;;27.20;91.30;;;;;;5104093;28;20031;-45
2021/10/13 12:03:14;;;;;;;8.07;5.57;;;27.20;91.20;;;;;;5104324;28;20024;-49
2021/10/13 12:05:54;;;;;;;8.18;5.03;;;27.20;91.10;;;;;;5104084;28;20016;-49
2021/10/13 12:08:38;;;;;;;9.35;4.40;;;27.30;91.10;;;;;;5104180;28;20050;-47
2021/10/13 12:11:21;;;;;;;6.82;4.95;;;27.30;91.10;;;;;;5103907;28;20020;-47
2021/10/13 12:13:49;;;;;;;;;;;27.40;91.00;;;;;;5104757;28;20024;-49
2021/10/13 12:16:24;;;;;;;11.90;4.80;;;27.40;91.00;;;;;;5103916;28;19997;-51
2021/10/13 12:18:51;;;;;;;7.22;4.38;;;27.40;91.00;;;;;;5104417;28;20114;-44
2021/10/13 12:21:23;;;;;;;5.40;4.03;;;27.40;91.00;;;;;;5107822;28;20039;-47
2021/10/13 12:23:55;;;;;;;5.60;3.92;;;27.50;90.80;;;;;;5108424;28;20326;-53
2021/10/13 12:26:25;;;;;;;6.38;4.63;;;27.50;90.80;;;;;;5108150;28;20059;-46
2021/10/13 12:28:54;;;;;;;8.52;3.70;;;27.50;90.80;;;;;;5107854;28;20373;-44
2021/10/13 12:31:23;;;;;;;7.95;4.00;;;27.50;90.80;;;;;;5108094;28;20020;-48
2021/10/13 12:34:08;;;;;;;7.03;4.18;;;27.60;90.80;;;;;;5108362;28;20039;-45
2021/10/13 12:36:38;;;;;;;6.25;4.00;;;27.60;90.80;;;;;;5107987;28;20042;-45
2021/10/13 12:39:10;;;;;;;7.60;3.85;;;27.60;90.80;;;;;;5108264;28;20024;-48
2021/10/13 12:41:38;;;;;;;;;;;27.60;90.70;;;;;;5108058;28;20035;-46
2021/10/13 12:44:22;;;;;;;9.05;3.72;;;27.60;90.70;;;;;;5108230;28;19912;-48
2021/10/13 12:47:12;;;;;;;6.60;4.05;;;27.60;90.80;;;;;;5107422;28;20031;-50
2021/10/13 12:49:39;;;;;;;5.90;3.90;;;27.70;90.80;;;;;;5107687;28;20016;-44
2021/10/13 12:52:11;;;;;;;6.82;3.65;;;27.70;90.70;;;;;;5107509;28;20020;-49
2021/10/13 12:54:43;;;;;;;6.68;4.38;;;27.70;90.70;;;;;;5107812;28;20020;-47
2021/10/13 12:57:13;;;;;;;5.47;4.13;;;27.70;90.70;;;;;;5107408;28;20054;-44
2021/10/13 12:59:40;;;;;;;8.57;4.13;;;27.70;90.70;;;;;;5107398;28;20080;-49
2021/10/13 13:02:08;;;;;;;5.28;3.97;;;27.70;90.70;;;;;;5107501;28;20028;-46